sensor_id;sensor_type;location;lat;lon;timestamp;pressure;altitude;pressure_sealevel;temperature;humidity
5812;BME280;2932;52.400;9.558;2023-06-26T00:01:14;100795.69;;;27.23;60.89
5812;BME280;2932;52.400;9.558;2023-06-26T00:03:39;100787.28;;;27.19;60.57
5812;BME280;2932;52.400;9.558;2023-06-26T00:06:05;100781.16;;;27.34;60.16
5812;BME280;2932;52.400;9.558;2023-06-26T00:08:30;100781.84;;;27.25;60.31
5812;BME280;2932;52.400;9.558;2023-06-26T00:10:56;100776.50;;;27.27;60.35
5812;BME280;2932;52.400;9.558;2023-06-26T00:13:22;100777.22;;;27.18;60.80
5812;BME280;2932;52.400;9.558;2023-06-26T00:15:49;100781.53;;;27.10;60.36
5812;BME280;2932;52.400;9.558;2023-06-26T00:18:15;100775.06;;;27.10;60.98
5812;BME280;2932;52.400;9.558;2023-06-26T00:20:40;100768.47;;;27.13;60.64
5812;BME280;2932;52.400;9.558;2023-06-26T00:23:05;100766.66;;;27.06;60.90
5812;BME280;2932;52.400;9.558;2023-06-26T00:25:33;100763.69;;;27.10;61.03
5812;BME280;2932;52.400;9.558;2023-06-26T00:27:58;100765.84;;;27.06;60.90
5812;BME280;2932;52.400;9.558;2023-06-26T00:30:24;100764.03;;;27.12;61.24
5812;BME280;2932;52.400;9.558;2023-06-26T00:32:49;100763.69;;;27.10;61.22
5812;BME280;2932;52.400;9.558;2023-06-26T00:35:15;100764.94;;;27.09;60.79
5812;BME280;2932;52.400;9.558;2023-06-26T00:37:41;100768.91;;;27.11;60.95
5812;BME280;2932;52.400;9.558;2023-06-26T00:40:06;100757.56;;;27.11;60.96
5812;BME280;2932;52.400;9.558;2023-06-26T00:42:32;100762.56;;;27.07;61.27
5812;BME280;2932;52.400;9.558;2023-06-26T00:44:57;100760.75;;;27.01;61.11
5812;BME280;2932;52.400;9.558;2023-06-26T00:47:23;100759.84;;;27.04;61.23
5812;BME280;2932;52.400;9.558;2023-06-26T00:49:49;100759.84;;;27.04;61.08
5812;BME280;2932;52.400;9.558;2023-06-26T00:52:15;100759.94;;;27.00;60.99
5812;BME280;2932;52.400;9.558;2023-06-26T00:54:41;100770.53;;;27.00;60.69
5812;BME280;2932;52.400;9.558;2023-06-26T00:57:07;100759.00;;;26.90;60.61
5812;BME280;2932;52.400;9.558;2023-06-26T00:59:32;100758.34;;;26.86;60.70
5812;BME280;2932;52.400;9.558;2023-06-26T01:01:58;100752.19;;;26.88;60.99
5812;BME280;2932;52.400;9.558;2023-06-26T01:04:24;100741.88;;;26.94;60.64
5812;BME280;2932;52.400;9.558;2023-06-26T01:06:53;100740.50;;;26.86;61.28
5812;BME280;2932;52.400;9.558;2023-06-26T01:09:20;100751.63;;;26.80;61.33
5812;BME280;2932;52.400;9.558;2023-06-26T01:11:46;100753.56;;;26.83;61.03
5812;BME280;2932;52.400;9.558;2023-06-26T01:14:12;100742.53;;;26.85;61.03
5812;BME280;2932;52.400;9.558;2023-06-26T01:16:39;100740.41;;;26.77;61.44
5812;BME280;2932;52.400;9.558;2023-06-26T01:19:19;100740.75;;;26.66;61.05
5812;BME280;2932;52.400;9.558;2023-06-26T01:21:56;100733.94;;;26.64;61.36
5812;BME280;2932;52.400;9.558;2023-06-26T01:24:25;100735.63;;;26.61;61.41
5812;BME280;2932;52.400;9.558;2023-06-26T01:26:56;100738.03;;;26.63;61.42
5812;BME280;2932;52.400;9.558;2023-06-26T01:29:23;100732.56;;;26.68;60.66
5812;BME280;2932;52.400;9.558;2023-06-26T01:31:49;100730.41;;;26.60;61.36
5812;BME280;2932;52.400;9.558;2023-06-26T01:34:16;100727.69;;;26.56;61.21
5812;BME280;2932;52.400;9.558;2023-06-26T01:36:44;100727.34;;;26.67;61.17
5812;BME280;2932;52.400;9.558;2023-06-26T01:39:09;100724.84;;;26.69;61.17
5812;BME280;2932;52.400;9.558;2023-06-26T01:41:34;100715.09;;;26.70;60.66
5812;BME280;2932;52.400;9.558;2023-06-26T01:44:25;100715.53;;;26.68;61.32
5812;BME280;2932;52.400;9.558;2023-06-26T01:47:04;100705.22;;;26.62;61.03
5812;BME280;2932;52.400;9.558;2023-06-26T01:52:49;100697.84;;;26.64;61.05
5812;BME280;2932;52.400;9.558;2023-06-26T01:57:54;100689.53;;;26.57;61.23
5812;BME280;2932;52.400;9.558;2023-06-26T02:00:21;100690.34;;;26.57;60.98
5812;BME280;2932;52.400;9.558;2023-06-26T02:02:47;100690.78;;;26.56;60.74
5812;BME280;2932;52.400;9.558;2023-06-26T02:05:13;100698.84;;;26.57;60.52
5812;BME280;2932;52.400;9.558;2023-06-26T02:07:39;100693.41;;;26.50;60.98
5812;BME280;2932;52.400;9.558;2023-06-26T02:10:05;100698.84;;;26.45;61.04
5812;BME280;2932;52.400;9.558;2023-06-26T02:12:30;100691.03;;;26.36;60.62
5812;BME280;2932;52.400;9.558;2023-06-26T02:14:56;100684.56;;;26.36;61.42
5812;BME280;2932;52.400;9.558;2023-06-26T02:17:21;100684.44;;;26.39;61.16
5812;BME280;2932;52.400;9.558;2023-06-26T02:19:46;100676.41;;;26.38;60.89
5812;BME280;2932;52.400;9.558;2023-06-26T02:22:15;100676.97;;;26.33;61.14
5812;BME280;2932;52.400;9.558;2023-06-26T02:24:41;100676.50;;;26.34;61.33
5812;BME280;2932;52.400;9.558;2023-06-26T02:27:07;100680.31;;;26.28;61.06
5812;BME280;2932;52.400;9.558;2023-06-26T02:29:33;100675.44;;;26.28;61.13
5812;BME280;2932;52.400;9.558;2023-06-26T02:31:58;100673.06;;;26.27;61.15
5812;BME280;2932;52.400;9.558;2023-06-26T02:34:23;100675.31;;;26.19;61.34
5812;BME280;2932;52.400;9.558;2023-06-26T02:36:49;100666.22;;;26.11;61.24
5812;BME280;2932;52.400;9.558;2023-06-26T02:39:14;100663.94;;;26.06;61.13
5812;BME280;2932;52.400;9.558;2023-06-26T02:41:41;100664.50;;;26.01;61.26
5812;BME280;2932;52.400;9.558;2023-06-26T02:44:06;100656.47;;;26.00;61.27
5812;BME280;2932;52.400;9.558;2023-06-26T02:46:32;100664.41;;;26.05;61.05
5812;BME280;2932;52.400;9.558;2023-06-26T02:48:58;100653.50;;;26.03;60.55
5812;BME280;2932;52.400;9.558;2023-06-26T02:51:24;100658.03;;;26.01;60.73
5812;BME280;2932;52.400;9.558;2023-06-26T02:53:49;100653.75;;;25.96;60.78
5812;BME280;2932;52.400;9.558;2023-06-26T02:56:15;100650.13;;;25.96;60.46
5812;BME280;2932;52.400;9.558;2023-06-26T02:58:40;100646.38;;;25.99;60.69
5812;BME280;2932;52.400;9.558;2023-06-26T03:01:05;100649.44;;;25.91;60.83
5812;BME280;2932;52.400;9.558;2023-06-26T03:03:31;100648.09;;;25.96;60.59
5812;BME280;2932;52.400;9.558;2023-06-26T03:06:05;100641.03;;;26.01;60.95
5812;BME280;2932;52.400;9.558;2023-06-26T03:08:30;100649.88;;;26.03;61.56
5812;BME280;2932;52.400;9.558;2023-06-26T03:10:57;100640.91;;;26.04;61.53
5812;BME280;2932;52.400;9.558;2023-06-26T03:13:22;100640.72;;;26.11;61.96
5812;BME280;2932;52.400;9.558;2023-06-26T03:15:47;100634.69;;;26.09;61.90
5812;BME280;2932;52.400;9.558;2023-06-26T03:18:13;100625.50;;;26.05;61.91
5812;BME280;2932;52.400;9.558;2023-06-26T03:20:38;100637.19;;;26.07;62.18
5812;BME280;2932;52.400;9.558;2023-06-26T03:23:03;100629.47;;;26.08;61.97
5812;BME280;2932;52.400;9.558;2023-06-26T03:25:29;100638.53;;;25.61;63.33
5812;BME280;2932;52.400;9.558;2023-06-26T03:27:54;100632.75;;;25.52;63.47
5812;BME280;2932;52.400;9.558;2023-06-26T03:30:19;100635.16;;;25.95;62.97
5812;BME280;2932;52.400;9.558;2023-06-26T03:32:45;100643.41;;;26.02;62.64
5812;BME280;2932;52.400;9.558;2023-06-26T03:35:10;100635.34;;;26.01;62.29
5812;BME280;2932;52.400;9.558;2023-06-26T03:37:35;100640.41;;;25.68;63.04
5812;BME280;2932;52.400;9.558;2023-06-26T03:40:01;100638.34;;;25.97;62.30
5812;BME280;2932;52.400;9.558;2023-06-26T03:42:26;100635.44;;;25.72;63.02
5812;BME280;2932;52.400;9.558;2023-06-26T03:44:52;100629.66;;;25.75;62.87
5812;BME280;2932;52.400;9.558;2023-06-26T03:47:17;100628.97;;;25.71;62.48
5812;BME280;2932;52.400;9.558;2023-06-26T03:49:42;100626.38;;;25.77;62.52
5812;BME280;2932;52.400;9.558;2023-06-26T03:52:07;100620.50;;;25.84;62.14
5812;BME280;2932;52.400;9.558;2023-06-26T03:54:33;100620.50;;;25.84;62.27
5812;BME280;2932;52.400;9.558;2023-06-26T03:56:59;100614.16;;;25.92;61.95
5812;BME280;2932;52.400;9.558;2023-06-26T03:59:24;100618.34;;;25.88;62.07
5812;BME280;2932;52.400;9.558;2023-06-26T04:01:49;100616.75;;;25.87;62.43
5812;BME280;2932;52.400;9.558;2023-06-26T04:04:14;100608.81;;;26.07;61.80
5812;BME280;2932;52.400;9.558;2023-06-26T04:06:40;100609.97;;;26.10;61.57
5812;BME280;2932;52.400;9.558;2023-06-26T04:09:05;100603.59;;;26.06;61.56
5812;BME280;2932;52.400;9.558;2023-06-26T04:11:30;100609.06;;;26.13;61.54
5812;BME280;2932;52.400;9.558;2023-06-26T04:13:56;100601.00;;;26.24;61.30
5812;BME280;2932;52.400;9.558;2023-06-26T04:16:22;100605.13;;;26.36;61.27
5812;BME280;2932;52.400;9.558;2023-06-26T04:18:50;100600.19;;;26.62;60.93
5812;BME280;2932;52.400;9.558;2023-06-26T04:21:16;100605.84;;;26.74;60.37
5812;BME280;2932;52.400;9.558;2023-06-26T04:23:42;100609.50;;;26.62;60.07
5812;BME280;2932;52.400;9.558;2023-06-26T04:26:07;100602.13;;;26.52;60.88
5812;BME280;2932;52.400;9.558;2023-06-26T04:28:33;100597.81;;;26.60;60.47
5812;BME280;2932;52.400;9.558;2023-06-26T04:31:00;100591.00;;;26.57;60.48
5812;BME280;2932;52.400;9.558;2023-06-26T04:33:26;100591.13;;;26.54;60.06
5812;BME280;2932;52.400;9.558;2023-06-26T04:35:51;100590.09;;;26.48;60.71
5812;BME280;2932;52.400;9.558;2023-06-26T04:38:17;100582.63;;;26.41;60.38
5812;BME280;2932;52.400;9.558;2023-06-26T04:40:43;100579.56;;;26.48;60.18
5812;BME280;2932;52.400;9.558;2023-06-26T04:43:08;100583.63;;;26.47;60.29
5812;BME280;2932;52.400;9.558;2023-06-26T04:45:34;100590.44;;;26.63;60.18
5812;BME280;2932;52.400;9.558;2023-06-26T04:47:59;100589.09;;;26.54;60.48
5812;BME280;2932;52.400;9.558;2023-06-26T04:50:27;100578.50;;;26.68;60.03
5812;BME280;2932;52.400;9.558;2023-06-26T04:52:56;100581.63;;;26.82;59.56
5812;BME280;2932;52.400;9.558;2023-06-26T04:55:24;100573.72;;;26.77;59.65
5812;BME280;2932;52.400;9.558;2023-06-26T04:57:49;100573.91;;;26.83;59.70
5812;BME280;2932;52.400;9.558;2023-06-26T05:00:15;100573.44;;;26.84;60.07
5812;BME280;2932;52.400;9.558;2023-06-26T05:02:40;100576.47;;;26.90;59.54
5812;BME280;2932;52.400;9.558;2023-06-26T05:05:06;100568.22;;;26.96;59.96
5812;BME280;2932;52.400;9.558;2023-06-26T05:07:31;100565.13;;;27.03;59.33
5812;BME280;2932;52.400;9.558;2023-06-26T05:09:57;100565.31;;;27.08;59.73
5812;BME280;2932;52.400;9.558;2023-06-26T05:12:22;100568.50;;;27.10;59.42
5812;BME280;2932;52.400;9.558;2023-06-26T05:14:47;100565.06;;;27.15;59.49
5812;BME280;2932;52.400;9.558;2023-06-26T05:17:16;100566.66;;;27.16;59.22
5812;BME280;2932;52.400;9.558;2023-06-26T05:19:42;100559.84;;;27.14;58.70
5812;BME280;2932;52.400;9.558;2023-06-26T05:22:08;100558.75;;;27.20;58.21
5812;BME280;2932;52.400;9.558;2023-06-26T05:24:35;100562.13;;;27.28;58.21
5812;BME280;2932;52.400;9.558;2023-06-26T05:27:01;100566.44;;;27.33;58.02
5812;BME280;2932;52.400;9.558;2023-06-26T05:29:27;100564.38;;;27.33;57.82
5812;BME280;2932;52.400;9.558;2023-06-26T05:31:53;100564.66;;;27.26;57.61
5812;BME280;2932;52.400;9.558;2023-06-26T05:34:22;100565.72;;;27.41;58.06
5812;BME280;2932;52.400;9.558;2023-06-26T05:36:50;100553.03;;;27.33;57.52
5812;BME280;2932;52.400;9.558;2023-06-26T05:39:16;100556.78;;;27.30;57.39
5812;BME280;2932;52.400;9.558;2023-06-26T05:41:44;100554.41;;;27.29;57.84
5812;BME280;2932;52.400;9.558;2023-06-26T05:44:09;100563.19;;;27.43;57.86
5812;BME280;2932;52.400;9.558;2023-06-26T05:46:34;100555.34;;;27.47;57.98
5812;BME280;2932;52.400;9.558;2023-06-26T05:49:00;100556.59;;;27.46;57.93
5812;BME280;2932;52.400;9.558;2023-06-26T05:51:27;100554.88;;;27.49;58.16
5812;BME280;2932;52.400;9.558;2023-06-26T05:53:52;100554.75;;;27.52;58.16
5812;BME280;2932;52.400;9.558;2023-06-26T05:56:18;100549.13;;;27.62;57.79
5812;BME280;2932;52.400;9.558;2023-06-26T05:58:43;100558.09;;;27.60;57.92
5812;BME280;2932;52.400;9.558;2023-06-26T06:01:09;100554.84;;;27.71;58.24
5812;BME280;2932;52.400;9.558;2023-06-26T06:03:34;100554.09;;;27.79;57.94
5812;BME280;2932;52.400;9.558;2023-06-26T06:06:00;100547.25;;;27.68;58.37
5812;BME280;2932;52.400;9.558;2023-06-26T06:08:25;100548.28;;;27.83;57.98
5812;BME280;2932;52.400;9.558;2023-06-26T06:10:50;100551.13;;;27.83;57.58
5812;BME280;2932;52.400;9.558;2023-06-26T06:13:16;100544.78;;;27.79;58.00
5812;BME280;2932;52.400;9.558;2023-06-26T06:15:41;100532.06;;;27.93;57.77
5812;BME280;2932;52.400;9.558;2023-06-26T06:18:06;100534.06;;;27.83;58.62
5812;BME280;2932;52.400;9.558;2023-06-26T06:20:32;100540.69;;;27.80;58.13
5812;BME280;2932;52.400;9.558;2023-06-26T06:22:57;100538.88;;;27.95;58.57
5812;BME280;2932;52.400;9.558;2023-06-26T06:25:22;100546.50;;;27.76;58.35
5812;BME280;2932;52.400;9.558;2023-06-26T06:27:48;100545.41;;;27.74;58.33
5812;BME280;2932;52.400;9.558;2023-06-26T06:30:13;100536.59;;;27.81;58.10
5812;BME280;2932;52.400;9.558;2023-06-26T06:32:38;100539.16;;;27.88;57.41
5812;BME280;2932;52.400;9.558;2023-06-26T06:35:04;100545.59;;;27.79;56.77
5812;BME280;2932;52.400;9.558;2023-06-26T06:37:35;100539.00;;;27.92;57.01
5812;BME280;2932;52.400;9.558;2023-06-26T06:40:00;100554.47;;;27.60;57.57
5812;BME280;2932;52.400;9.558;2023-06-26T06:42:25;100549.16;;;27.71;57.52
5812;BME280;2932;52.400;9.558;2023-06-26T06:44:50;100547.41;;;27.95;56.40
5812;BME280;2932;52.400;9.558;2023-06-26T06:47:16;100545.50;;;28.01;55.70
5812;BME280;2932;52.400;9.558;2023-06-26T06:49:41;100549.56;;;28.22;55.61
5812;BME280;2932;52.400;9.558;2023-06-26T06:52:06;100545.81;;;28.34;55.40
5812;BME280;2932;52.400;9.558;2023-06-26T06:54:51;100553.38;;;28.28;55.07
5812;BME280;2932;52.400;9.558;2023-06-26T06:57:16;100558.31;;;28.06;54.11
5812;BME280;2932;52.400;9.558;2023-06-26T06:59:42;100550.75;;;28.12;54.52
5812;BME280;2932;52.400;9.558;2023-06-26T07:02:07;100553.19;;;28.23;54.11
5812;BME280;2932;52.400;9.558;2023-06-26T07:04:32;100551.38;;;28.56;53.88
5812;BME280;2932;52.400;9.558;2023-06-26T07:06:58;100550.25;;;28.04;53.93
5812;BME280;2932;52.400;9.558;2023-06-26T07:09:23;100553.53;;;28.25;53.76
5812;BME280;2932;52.400;9.558;2023-06-26T07:11:48;100554.22;;;27.98;53.80
5812;BME280;2932;52.400;9.558;2023-06-26T07:14:14;100539.19;;;28.37;53.39
5812;BME280;2932;52.400;9.558;2023-06-26T07:16:39;100550.91;;;28.08;53.20
5812;BME280;2932;52.400;9.558;2023-06-26T07:19:04;100556.78;;;28.14;53.88
5812;BME280;2932;52.400;9.558;2023-06-26T07:21:30;100553.91;;;28.63;52.76
5812;BME280;2932;52.400;9.558;2023-06-26T07:23:55;100553.56;;;28.43;53.19
5812;BME280;2932;52.400;9.558;2023-06-26T07:26:20;100560.00;;;28.25;54.05
5812;BME280;2932;52.400;9.558;2023-06-26T07:28:47;100548.00;;;28.39;54.01
5812;BME280;2932;52.400;9.558;2023-06-26T07:31:14;100541.28;;;28.82;54.02
5812;BME280;2932;52.400;9.558;2023-06-26T07:33:39;100549.84;;;28.92;54.26
5812;BME280;2932;52.400;9.558;2023-06-26T07:36:05;100563.75;;;28.71;53.24
5812;BME280;2932;52.400;9.558;2023-06-26T07:38:31;100562.28;;;28.48;53.70
5812;BME280;2932;52.400;9.558;2023-06-26T07:40:56;100549.50;;;28.62;53.64
5812;BME280;2932;52.400;9.558;2023-06-26T07:43:21;100551.69;;;28.49;53.29
5812;BME280;2932;52.400;9.558;2023-06-26T07:45:48;100549.78;;;28.55;53.83
5812;BME280;2932;52.400;9.558;2023-06-26T07:48:13;100554.72;;;28.64;53.83
5812;BME280;2932;52.400;9.558;2023-06-26T07:50:39;100561.38;;;28.79;53.42
5812;BME280;2932;52.400;9.558;2023-06-26T07:53:04;100564.69;;;28.68;53.61
5812;BME280;2932;52.400;9.558;2023-06-26T07:55:31;100554.91;;;29.06;53.10
5812;BME280;2932;52.400;9.558;2023-06-26T07:57:56;100552.66;;;29.28;52.73
5812;BME280;2932;52.400;9.558;2023-06-26T08:00:22;100555.06;;;29.48;53.16
5812;BME280;2932;52.400;9.558;2023-06-26T08:02:47;100555.81;;;29.39;53.69
5812;BME280;2932;52.400;9.558;2023-06-26T08:05:13;100552.69;;;29.10;54.23
5812;BME280;2932;52.400;9.558;2023-06-26T08:07:38;100565.66;;;29.38;53.32
5812;BME280;2932;52.400;9.558;2023-06-26T08:10:05;100551.56;;;29.53;53.79
5812;BME280;2932;52.400;9.558;2023-06-26T08:12:30;100552.38;;;29.17;53.44
5812;BME280;2932;52.400;9.558;2023-06-26T08:14:56;100551.38;;;29.38;53.67
5812;BME280;2932;52.400;9.558;2023-06-26T08:17:21;100542.56;;;29.09;53.70
5812;BME280;2932;52.400;9.558;2023-06-26T08:19:46;100544.78;;;28.96;53.35
5812;BME280;2932;52.400;9.558;2023-06-26T08:22:12;100547.13;;;29.34;53.65
5812;BME280;2932;52.400;9.558;2023-06-26T08:24:37;100544.59;;;29.27;53.46
5812;BME280;2932;52.400;9.558;2023-06-26T08:27:03;100552.81;;;29.34;53.94
5812;BME280;2932;52.400;9.558;2023-06-26T08:29:29;100540.47;;;29.46;54.08
5812;BME280;2932;52.400;9.558;2023-06-26T08:31:54;100551.97;;;29.70;53.91
5812;BME280;2932;52.400;9.558;2023-06-26T08:34:19;100559.31;;;29.25;53.83
5812;BME280;2932;52.400;9.558;2023-06-26T08:36:44;100560.09;;;29.26;54.12
5812;BME280;2932;52.400;9.558;2023-06-26T08:39:10;100569.78;;;29.28;54.46
5812;BME280;2932;52.400;9.558;2023-06-26T08:41:35;100584.81;;;29.38;54.75
5812;BME280;2932;52.400;9.558;2023-06-26T08:44:02;100592.38;;;29.59;55.91
5812;BME280;2932;52.400;9.558;2023-06-26T08:46:28;100591.63;;;29.40;54.75
5812;BME280;2932;52.400;9.558;2023-06-26T08:49:01;100596.38;;;29.34;54.63
5812;BME280;2932;52.400;9.558;2023-06-26T08:51:28;100599.84;;;29.38;54.64
5812;BME280;2932;52.400;9.558;2023-06-26T08:56:24;100603.16;;;29.64;55.33
5812;BME280;2932;52.400;9.558;2023-06-26T08:58:50;100609.66;;;29.37;54.57
5812;BME280;2932;52.400;9.558;2023-06-26T09:01:16;100603.03;;;29.04;55.61
5812;BME280;2932;52.400;9.558;2023-06-26T09:03:42;100602.81;;;28.80;56.47
5812;BME280;2932;52.400;9.558;2023-06-26T09:06:08;100607.75;;;28.88;57.21
5812;BME280;2932;52.400;9.558;2023-06-26T09:08:34;100609.19;;;28.93;57.20
5812;BME280;2932;52.400;9.558;2023-06-26T09:10:59;100601.38;;;28.66;56.59
5812;BME280;2932;52.400;9.558;2023-06-26T09:13:25;100596.03;;;28.77;55.96
5812;BME280;2932;52.400;9.558;2023-06-26T09:15:53;100596.56;;;28.45;57.15
5812;BME280;2932;52.400;9.558;2023-06-26T09:18:20;100604.28;;;28.84;57.06
5812;BME280;2932;52.400;9.558;2023-06-26T09:20:46;100616.25;;;28.79;57.71
5812;BME280;2932;52.400;9.558;2023-06-26T09:23:12;100607.22;;;28.63;57.76
5812;BME280;2932;52.400;9.558;2023-06-26T09:25:39;100622.28;;;28.23;58.49
5812;BME280;2932;52.400;9.558;2023-06-26T09:28:05;100613.66;;;28.36;59.58
5812;BME280;2932;52.400;9.558;2023-06-26T09:30:32;100625.25;;;28.19;58.83
5812;BME280;2932;52.400;9.558;2023-06-26T09:32:57;100630.25;;;28.37;58.56
5812;BME280;2932;52.400;9.558;2023-06-26T09:35:23;100635.19;;;28.15;59.17
5812;BME280;2932;52.400;9.558;2023-06-26T09:37:50;100647.50;;;28.12;59.40
5812;BME280;2932;52.400;9.558;2023-06-26T09:40:15;100629.91;;;28.04;60.21
5812;BME280;2932;52.400;9.558;2023-06-26T09:42:41;100646.31;;;28.00;60.09
5812;BME280;2932;52.400;9.558;2023-06-26T09:45:07;100646.81;;;27.99;59.50
5812;BME280;2932;52.400;9.558;2023-06-26T09:47:34;100651.53;;;27.71;59.88
5812;BME280;2932;52.400;9.558;2023-06-26T09:49:59;100660.03;;;27.93;60.25
5812;BME280;2932;52.400;9.558;2023-06-26T09:52:26;100655.09;;;27.62;61.05
5812;BME280;2932;52.400;9.558;2023-06-26T09:55:10;100660.75;;;27.40;62.64
5812;BME280;2932;52.400;9.558;2023-06-26T09:57:35;100672.22;;;27.15;63.03
5812;BME280;2932;52.400;9.558;2023-06-26T10:00:04;100683.41;;;27.31;62.85
5812;BME280;2932;52.400;9.558;2023-06-26T10:02:30;100678.84;;;26.86;63.76
5812;BME280;2932;52.400;9.558;2023-06-26T10:04:55;100694.75;;;26.97;63.90
5812;BME280;2932;52.400;9.558;2023-06-26T10:07:21;100702.34;;;27.47;62.61
5812;BME280;2932;52.400;9.558;2023-06-26T10:09:48;100711.53;;;27.16;60.17
5812;BME280;2932;52.400;9.558;2023-06-26T10:12:24;100710.63;;;26.94;61.26
5812;BME280;2932;52.400;9.558;2023-06-26T10:14:52;100717.91;;;26.82;61.47
5812;BME280;2932;52.400;9.558;2023-06-26T10:17:19;100722.91;;;26.40;63.74
5812;BME280;2932;52.400;9.558;2023-06-26T10:19:48;100719.00;;;26.21;64.81
5812;BME280;2932;52.400;9.558;2023-06-26T10:22:17;100722.75;;;26.18;65.40
5812;BME280;2932;52.400;9.558;2023-06-26T10:24:43;100733.75;;;26.16;65.76
5812;BME280;2932;52.400;9.558;2023-06-26T10:29:44;100739.00;;;27.19;64.57
5812;BME280;2932;52.400;9.558;2023-06-26T10:32:11;100744.31;;;27.30;64.61
5812;BME280;2932;52.400;9.558;2023-06-26T10:34:38;100749.84;;;27.46;63.72
5812;BME280;2932;52.400;9.558;2023-06-26T10:37:03;100756.81;;;27.80;62.98
5812;BME280;2932;52.400;9.558;2023-06-26T10:42:15;100754.88;;;28.73;61.52
5812;BME280;2932;52.400;9.558;2023-06-26T10:44:44;100753.06;;;28.98;60.59
5812;BME280;2932;52.400;9.558;2023-06-26T10:47:31;100754.34;;;28.97;60.05
5812;BME280;2932;52.400;9.558;2023-06-26T10:52:44;100753.47;;;28.78;59.21
5812;BME280;2932;52.400;9.558;2023-06-26T10:55:10;100750.81;;;28.83;59.16
5812;BME280;2932;52.400;9.558;2023-06-26T10:57:36;100747.81;;;28.87;59.18
5812;BME280;2932;52.400;9.558;2023-06-26T11:00:14;100751.16;;;28.11;60.60
5812;BME280;2932;52.400;9.558;2023-06-26T11:02:52;100757.91;;;28.48;60.02
5812;BME280;2932;52.400;9.558;2023-06-26T11:08:09;100756.69;;;27.36;61.59
5812;BME280;2932;52.400;9.558;2023-06-26T11:10:53;100750.44;;;27.76;61.16
5812;BME280;2932;52.400;9.558;2023-06-26T11:13:19;100757.13;;;27.82;61.70
5812;BME280;2932;52.400;9.558;2023-06-26T11:15:49;100752.69;;;28.03;61.67
5812;BME280;2932;52.400;9.558;2023-06-26T11:18:15;100756.59;;;27.27;61.91
5812;BME280;2932;52.400;9.558;2023-06-26T11:20:41;100755.72;;;26.79;62.80
5812;BME280;2932;52.400;9.558;2023-06-26T11:23:07;100753.03;;;27.01;62.61
5812;BME280;2932;52.400;9.558;2023-06-26T11:25:34;100767.16;;;27.74;62.20
5812;BME280;2932;52.400;9.558;2023-06-26T11:28:00;100764.91;;;28.25;60.63
5812;BME280;2932;52.400;9.558;2023-06-26T11:30:26;100757.00;;;27.85;59.81
5812;BME280;2932;52.400;9.558;2023-06-26T11:32:52;100767.91;;;27.18;60.61
5812;BME280;2932;52.400;9.558;2023-06-26T11:35:24;100768.63;;;27.44;60.23
5812;BME280;2932;52.400;9.558;2023-06-26T11:37:59;100777.50;;;27.80;59.54
5812;BME280;2932;52.400;9.558;2023-06-26T11:40:26;100775.81;;;27.70;60.05
5812;BME280;2932;52.400;9.558;2023-06-26T11:42:58;100770.78;;;28.62;57.69
5812;BME280;2932;52.400;9.558;2023-06-26T11:45:23;100772.84;;;28.92;54.16
5812;BME280;2932;52.400;9.558;2023-06-26T11:47:49;100777.47;;;28.37;53.89
5812;BME280;2932;52.400;9.558;2023-06-26T11:50:15;100776.06;;;27.63;53.90
5812;BME280;2932;52.400;9.558;2023-06-26T11:52:42;100786.69;;;27.50;55.05
5812;BME280;2932;52.400;9.558;2023-06-26T11:55:08;100772.81;;;28.08;53.99
5812;BME280;2932;52.400;9.558;2023-06-26T11:57:33;100797.03;;;27.44;54.80
5812;BME280;2932;52.400;9.558;2023-06-26T12:00:10;100804.97;;;27.96;55.41
5812;BME280;2932;52.400;9.558;2023-06-26T12:02:36;100803.63;;;28.10;54.68
5812;BME280;2932;52.400;9.558;2023-06-26T12:05:01;100797.91;;;27.66;54.67
5812;BME280;2932;52.400;9.558;2023-06-26T12:07:26;100795.16;;;27.75;54.95
5812;BME280;2932;52.400;9.558;2023-06-26T12:09:52;100793.50;;;28.09;54.91
5812;BME280;2932;52.400;9.558;2023-06-26T12:12:18;100786.69;;;28.81;54.08
5812;BME280;2932;52.400;9.558;2023-06-26T12:14:44;100792.09;;;29.28;53.37
5812;BME280;2932;52.400;9.558;2023-06-26T12:17:13;100779.19;;;29.91;51.59
5812;BME280;2932;52.400;9.558;2023-06-26T12:19:44;100776.97;;;29.77;52.27
5812;BME280;2932;52.400;9.558;2023-06-26T12:22:10;100783.97;;;29.94;52.06
5812;BME280;2932;52.400;9.558;2023-06-26T12:24:37;100792.03;;;29.68;51.48
5812;BME280;2932;52.400;9.558;2023-06-26T12:27:08;100800.91;;;29.03;52.51
5812;BME280;2932;52.400;9.558;2023-06-26T12:29:35;100807.34;;;28.94;52.80
5812;BME280;2932;52.400;9.558;2023-06-26T12:32:01;100807.72;;;29.05;52.07
5812;BME280;2932;52.400;9.558;2023-06-26T12:34:31;100795.47;;;28.96;51.52
5812;BME280;2932;52.400;9.558;2023-06-26T12:37:23;100805.19;;;28.76;49.91
5812;BME280;2932;52.400;9.558;2023-06-26T12:42:18;100800.34;;;27.89;50.21
5812;BME280;2932;52.400;9.558;2023-06-26T12:44:43;100796.97;;;28.47;49.50
5812;BME280;2932;52.400;9.558;2023-06-26T12:47:09;100802.84;;;28.53;49.15
5812;BME280;2932;52.400;9.558;2023-06-26T12:49:39;100803.03;;;29.30;49.05
5812;BME280;2932;52.400;9.558;2023-06-26T12:52:06;100795.56;;;28.52;50.00
5812;BME280;2932;52.400;9.558;2023-06-26T12:54:34;100797.63;;;28.51;50.07
5812;BME280;2932;52.400;9.558;2023-06-26T12:56:59;100799.50;;;28.76;49.75
5812;BME280;2932;52.400;9.558;2023-06-26T12:59:25;100810.25;;;28.07;49.95
5812;BME280;2932;52.400;9.558;2023-06-26T13:01:51;100810.38;;;28.03;49.79
5812;BME280;2932;52.400;9.558;2023-06-26T13:04:16;100810.13;;;27.88;50.31
5812;BME280;2932;52.400;9.558;2023-06-26T13:06:42;100805.69;;;28.09;50.41
5812;BME280;2932;52.400;9.558;2023-06-26T13:09:07;100815.66;;;28.27;49.13
5812;BME280;2932;52.400;9.558;2023-06-26T13:11:33;100811.84;;;27.26;48.22
5812;BME280;2932;52.400;9.558;2023-06-26T13:14:00;100798.38;;;27.65;47.43
5812;BME280;2932;52.400;9.558;2023-06-26T13:16:25;100799.50;;;27.67;46.75
5812;BME280;2932;52.400;9.558;2023-06-26T13:18:51;100798.75;;;28.10;45.99
5812;BME280;2932;52.400;9.558;2023-06-26T13:21:16;100797.88;;;28.44;44.96
5812;BME280;2932;52.400;9.558;2023-06-26T13:23:43;100795.00;;;28.35;45.01
5812;BME280;2932;52.400;9.558;2023-06-26T13:26:09;100801.59;;;28.54;45.27
5812;BME280;2932;52.400;9.558;2023-06-26T13:28:34;100787.50;;;28.50;45.65